This is the latest recevied weather packets stored in our database for station/object DL1DH-17. If no packets are shown the sender has not sent any weather packets the latest 10 day(s).
| Time | Temp. | Humidity | Pressure | Rain* | Wind** | Luminosity | Snow |
|---|---|---|---|---|---|---|---|
| 1778261737 | 13.89° C | 53% | 977.7 hPa | - | - | - | - |
| 1778260897 | 13.89° C | 52% | 977.6 hPa | - | - | - | - |
| 1778260057 | 14.44° C | 52% | 977.6 hPa | - | - | - | - |
| 1778259217 | 15° C | 51% | 977.5 hPa | - | - | - | - |
| 1778258377 | 15° C | 51% | 977.5 hPa | - | - | - | - |
| 1778257537 | 14.44° C | 51% | 977.5 hPa | - | - | - | - |
| 1778256697 | 15° C | 49% | 977.4 hPa | - | - | - | - |
| 1778255857 | 15.56° C | 49% | 977.5 hPa | - | - | - | - |
| 1778255017 | 15.56° C | 49% | 977.6 hPa | - | - | - | - |
| 1778254177 | 15° C | 51% | 977.5 hPa | - | - | - | - |
| 1778253336 | 15° C | 50% | 977.6 hPa | - | - | - | - |
| 1778252495 | 15° C | 51% | 977.6 hPa | - | - | - | - |
| 1778251655 | 15° C | 51% | 977.6 hPa | - | - | - | - |
| 1778250815 | 15.56° C | 50% | 977.7 hPa | - | - | - | - |
| 1778249975 | 16.67° C | 50% | 977.8 hPa | - | - | - | - |
| 1778249135 | 16.11° C | 51% | 978 hPa | - | - | - | - |
| 1778248295 | 16.67° C | 51% | 978 hPa | - | - | - | - |
| 1778247455 | 15.56° C | 52% | 978.2 hPa | - | - | - | - |
| 1778246615 | 15.56° C | 54% | 978.2 hPa | - | - | - | - |
| 1778245775 | 16.11° C | 54% | 978.2 hPa | - | - | - | - |
| 1778244934 | 15.56° C | 55% | 978.4 hPa | - | - | - | - |
| 1778244094 | 15° C | 56% | 978.4 hPa | - | - | - | - |
| 1778243254 | 14.44° C | 59% | 978.6 hPa | - | - | - | - |
| 1778242414 | 14.44° C | 60% | 978.5 hPa | - | - | - | - |
| 1778241574 | 13.33° C | 62% | 978.5 hPa | - | - | - | - |
* Rain since midnight (hover to see other rain measurements)
** Current wind speed in m/s (hover to see current wind gust speed)